Time;durP1;ratioP1;P1;durP2;ratioP2;P2;SDS_P1;SDS_P2;PMS_P1;PMS_P2;Temp;Humidity;BMP_temperature;BMP_pressure;BME280_temperature;BME280_humidity;BME280_pressure;Samples;Min_cycle;Max_cycle;Signal;HPM_P1;HPM_P2
2022/07/28 00:00:01;;;;;;;5.50;2.80;;;16.60;55.70;;;15.52;58.56;98000.72;5006001;28;20561;-74
2022/07/28 00:02:28;;;;;;;3.83;3.27;;;16.50;55.80;;;15.51;58.62;97999.06;5021584;28;20965;-76
2022/07/28 00:04:56;;;;;;;3.53;3.23;;;16.50;56.10;;;15.50;58.46;98005.59;5004693;28;20524;-73
2022/07/28 00:07:24;;;;;;;3.43;3.13;;;16.40;56.30;;;15.56;58.35;98001.91;5005989;28;20474;-75
2022/07/28 00:09:52;;;;;;;3.43;2.80;;;16.40;56.40;;;15.42;59.13;98000.59;5003656;28;20471;-74
2022/07/28 00:12:21;;;;;;;3.30;2.90;;;16.40;56.50;;;15.25;59.39;98006.00;5001590;28;20478;-72
2022/07/28 00:14:48;;;;;;;3.43;2.87;;;16.20;56.60;;;15.08;59.44;97978.78;5002849;28;20537;-72
2022/07/28 00:17:15;;;;;;;6.60;3.20;;;16.20;56.80;;;15.17;60.11;98009.97;5005937;28;20462;-75
2022/07/28 00:19:43;;;;;;;3.53;3.10;;;16.10;57.00;;;15.05;60.36;98001.03;5018813;28;20540;-74
2022/07/28 00:22:10;;;;;;;3.30;3.00;;;16.10;57.30;;;15.20;60.29;97997.78;5005138;28;20963;-73
2022/07/28 00:24:38;;;;;;;3.63;3.30;;;16.10;57.60;;;15.12;60.40;97996.28;5011534;28;20484;-74
2022/07/28 00:27:06;;;;;;;2.90;2.60;;;16.00;57.80;;;15.06;60.49;97998.06;5008307;28;20467;-73
2022/07/28 00:29:35;;;;;;;3.30;3.00;;;16.00;57.80;;;15.07;61.01;97988.00;5008033;28;20451;-74
2022/07/28 00:32:03;;;;;;;6.80;3.00;;;16.00;58.10;;;15.09;60.76;98002.19;5010599;28;20462;-75
2022/07/28 00:34:30;;;;;;;3.83;3.50;;;16.00;58.10;;;14.81;61.81;97995.72;5003649;28;20481;-74
2022/07/28 00:36:58;;;;;;;3.40;3.10;;;15.90;58.50;;;14.92;61.57;98007.63;5003208;28;20466;-74
2022/07/28 00:39:25;;;;;;;3.80;3.50;;;15.90;58.80;;;14.94;61.26;97995.44;5001299;28;20459;-74
2022/07/28 00:41:52;;;;;;;3.60;3.30;;;15.90;59.10;;;14.85;61.98;97999.59;5001782;28;21789;-74
2022/07/28 00:44:20;;;;;;;6.93;3.20;;;15.80;59.40;;;15.04;61.75;98004.81;4999738;28;20458;-74
2022/07/28 00:46:49;;;;;;;4.30;2.70;;;15.90;59.70;;;15.15;61.38;97990.34;5003100;28;20471;-74
2022/07/28 00:49:16;;;;;;;4.97;3.60;;;16.00;59.70;;;14.71;61.39;97931.06;5000756;28;20448;-73
2022/07/28 00:51:44;;;;;;;3.00;2.80;;;16.00;59.70;;;15.13;61.54;98000.66;5014702;28;20534;-77
2022/07/28 00:54:11;;;;;;;4.60;3.03;;;16.00;59.90;;;15.11;61.79;97994.63;5011325;28;20486;-74
2022/07/28 00:56:39;;;;;;;3.13;2.80;;;16.00;60.10;;;14.91;62.14;97989.66;5000866;28;20464;-76
2022/07/28 00:59:07;;;;;;;3.63;3.33;;;16.00;60.40;;;15.00;62.39;97999.88;5001680;28;20506;-74
2022/07/28 01:01:34;;;;;;;3.30;3.00;;;15.90;60.60;;;14.93;62.46;97993.75;4999682;28;20450;-73
2022/07/28 01:04:04;;;;;;;3.40;3.10;;;15.90;60.80;;;14.85;63.00;97986.00;5013638;28;20547;-73
2022/07/28 01:07:06;;;;;;;3.40;3.10;;;15.90;61.30;;;14.85;63.28;98011.28;5000124;28;20553;-73
2022/07/28 01:09:48;;;;;;;3.90;3.50;;;15.80;61.50;;;14.71;63.84;98005.34;4991530;28;20470;-73
2022/07/28 01:12:34;;;;;;;4.00;3.60;;;15.70;62.00;;;14.84;63.54;98000.69;5000348;28;20465;-73
2022/07/28 01:15:16;;;;;;;3.80;3.47;;;15.70;62.50;;;14.75;64.03;97996.69;4998791;28;20645;-75
2022/07/28 01:17:54;;;;;;;5.00;3.13;;;15.70;63.10;;;14.87;63.58;97994.75;5014661;28;20464;-74
2022/07/28 01:20:31;;;;;;;4.33;2.93;;;15.70;63.30;;;14.88;63.42;97993.66;5014934;28;20891;-73
2022/07/28 01:23:15;;;;;;;4.47;3.57;;;15.80;63.30;;;14.92;63.38;98002.19;4999758;28;20461;-75
2022/07/28 01:25:54;;;;;;;5.03;3.47;;;15.80;63.50;;;14.96;63.34;97993.28;4999135;28;20550;-73
2022/07/28 01:28:29;;;;;;;4.20;3.23;;;15.90;63.60;;;15.08;63.01;97984.22;4999008;28;20462;-74
2022/07/28 01:31:02;;;;;;;5.53;3.10;;;16.00;63.40;;;15.09;62.62;97989.41;4996631;28;20465;-75
2022/07/28 01:33:38;;;;;;;5.50;3.50;;;16.00;63.40;;;15.00;63.39;97983.56;4999394;28;21214;-75
2022/07/28 01:36:11;;;;;;;4.33;3.47;;;16.00;63.60;;;15.22;62.89;97982.81;5012303;28;20568;-72
2022/07/28 01:38:40;;;;;;;3.63;3.13;;;16.10;63.50;;;15.26;61.83;97986.72;5001810;28;20556;-74
2022/07/28 01:41:22;;;;;;;5.50;2.77;;;16.20;63.10;;;15.26;62.70;97986.72;4996543;28;20457;-73
2022/07/28 01:43:57;;;;;;;3.63;2.97;;;16.20;63.10;;;15.39;62.09;97982.00;5000847;28;20513;-74
2022/07/28 01:46:26;;;;;;;3.77;3.43;;;16.30;62.80;;;15.43;61.67;97980.44;5012957;28;20461;-72
2022/07/28 01:48:56;;;;;;;3.30;3.00;;;16.30;62.50;;;15.35;61.69;97978.97;4998712;28;20465;-73
2022/07/28 01:51:25;;;;;;;3.80;3.23;;;16.30;62.60;;;15.35;62.04;97983.56;5001799;28;20466;-73
2022/07/28 01:53:54;;;;;;;7.77;3.50;;;16.30;62.90;;;15.45;61.66;97978.31;5002580;28;20485;-74
2022/07/28 01:56:22;;;;;;;3.57;3.17;;;16.30;62.60;;;15.43;61.12;97970.38;4997722;28;20465;-75
2022/07/28 01:58:52;;;;;;;3.53;3.17;;;16.40;62.40;;;15.50;61.01;97972.94;4999529;28;20463;-74
2022/07/28 02:01:21;;;;;;;4.23;3.60;;;16.40;62.20;;;15.52;60.99;97965.34;5002153;28;20525;-75
2022/07/28 02:03:51;;;;;;;5.30;4.00;;;16.50;62.20;;;15.47;61.03;97959.81;5005526;28;20893;-73
2022/07/28 02:06:21;;;;;;;3.30;2.90;;;16.40;62.10;;;15.46;61.11;97963.63;5001478;28;20542;-74
2022/07/28 02:08:50;;;;;;;6.20;3.10;;;16.40;62.10;;;15.28;61.86;97956.53;5002061;28;20481;-73
2022/07/28 02:14:04;;;;;;;3.40;3.10;;;16.20;62.30;;;15.24;61.49;97961.66;5001989;28;20520;-73
2022/07/28 02:16:32;;;;;;;3.57;3.30;;;16.20;62.50;;;15.20;62.09;97954.22;5001707;28;20545;-73
2022/07/28 02:19:02;;;;;;;3.57;3.27;;;16.20;62.40;;;15.02;62.14;97954.22;5018034;28;20494;-73
2022/07/28 02:21:31;;;;;;;3.40;3.13;;;16.00;62.50;;;15.02;62.19;97948.78;5000071;28;20462;-72
2022/07/28 02:24:00;;;;;;;4.37;3.33;;;16.00;62.50;;;15.07;61.66;97948.03;4998598;28;20457;-73
2022/07/28 02:26:32;;;;;;;3.87;3.53;;;16.00;62.50;;;15.08;61.82;97948.84;4998979;28;20524;-73
2022/07/28 02:29:04;;;;;;;3.23;3.03;;;16.00;62.50;;;15.01;62.23;97943.56;5015857;28;20516;-72
2022/07/28 02:31:38;;;;;;;4.27;3.90;;;15.90;62.60;;;14.93;62.08;97950.22;4994116;28;20506;-73
2022/07/28 02:34:08;;;;;;;7.37;3.30;;;15.90;62.70;;;14.84;62.40;97940.84;5014730;28;20533;-72
2022/07/28 02:36:43;;;;;;;6.07;3.70;;;15.90;63.00;;;14.82;62.49;97943.00;5006241;28;20954;-73
2022/07/28 02:39:22;;;;;;;5.53;3.27;;;15.80;62.90;;;14.72;63.36;97946.34;5004244;28;20461;-73
2022/07/28 02:41:58;;;;;;;3.03;2.73;;;15.70;63.40;;;14.79;62.78;97936.13;5002736;28;20472;-73
2022/07/28 02:44:34;;;;;;;6.93;4.10;;;15.70;63.30;;;14.82;62.36;97940.25;5006573;28;20472;-74
2022/07/28 02:47:08;;;;;;;3.80;3.50;;;15.80;63.30;;;14.80;62.91;97947.84;5018034;28;20468;-72
2022/07/28 02:49:37;;;;;;;4.07;3.67;;;15.70;63.30;;;14.80;62.56;97939.69;5018339;28;20849;-73
2022/07/28 02:52:07;;;;;;;3.80;3.20;;;15.70;63.40;;;14.67;62.62;97936.16;5013562;28;20660;-73
2022/07/28 02:54:36;;;;;;;9.50;4.37;;;15.70;63.50;;;14.62;62.91;97936.06;5003584;28;21498;-75
2022/07/28 02:57:05;;;;;;;3.60;3.30;;;15.60;63.80;;;14.69;62.99;97934.03;5002621;28;20454;-74
2022/07/28 02:59:32;;;;;;;3.93;3.63;;;15.60;63.80;;;14.61;63.38;97933.59;5003471;28;20463;-73
2022/07/28 03:02:01;;;;;;;4.17;3.63;;;15.60;63.80;;;14.65;62.99;97932.88;5001028;28;20484;-74
2022/07/28 03:07:21;;;;;;;4.10;3.77;;;15.60;63.90;;;14.64;62.92;97936.66;4982231;28;20615;-74
2022/07/28 03:09:48;;;;;;;5.23;3.83;;;15.60;63.90;;;14.43;63.45;97933.53;5018650;28;20470;-76
2022/07/28 03:12:16;;;;;;;3.77;3.47;;;15.50;64.00;;;14.51;63.78;97940.50;4995871;28;20473;-74
2022/07/28 03:14:43;;;;;;;5.20;3.70;;;15.50;64.40;;;14.55;63.71;97938.13;4994871;28;20548;-74
2022/07/28 03:17:10;;;;;;;3.93;3.47;;;15.50;64.40;;;14.53;63.08;97929.38;5014797;28;20457;-74
2022/07/28 03:19:38;;;;;;;4.10;3.70;;;15.50;64.30;;;14.52;63.18;97933.16;5008738;28;20864;-74
2022/07/28 03:22:06;;;;;;;5.93;3.53;;;15.60;64.30;;;14.45;63.71;97934.13;4999949;28;20461;-73
2022/07/28 03:24:37;;;;;;;5.43;4.53;;;15.50;64.40;;;14.59;63.50;97929.22;5008042;28;20529;-72
2022/07/28 03:27:13;;;;;;;5.33;3.60;;;15.50;64.40;;;14.68;62.92;97934.25;4999495;28;20461;-74
2022/07/28 03:29:43;;;;;;;4.50;3.70;;;15.60;64.20;;;14.63;62.97;97929.56;5002386;28;20473;-74
2022/07/28 03:32:11;;;;;;;5.13;3.73;;;15.60;64.20;;;14.67;62.86;97941.59;5005046;28;20464;-76
2022/07/28 03:34:38;;;;;;;3.50;3.20;;;15.60;64.00;;;14.63;62.93;97934.97;5010439;28;20476;-74
2022/07/28 03:37:12;;;;;;;6.73;4.13;;;15.60;64.20;;;14.55;63.13;97929.97;5006880;28;20543;-75
2022/07/28 03:39:45;;;;;;;5.83;4.03;;;15.60;64.20;;;14.61;63.11;97931.69;5006742;28;20503;-74
2022/07/28 03:42:14;;;;;;;4.07;3.67;;;15.60;64.20;;;14.58;63.13;97943.91;4998941;28;20996;-74
2022/07/28 03:44:42;;;;;;;5.27;3.77;;;15.60;64.30;;;14.64;63.05;97942.09;5002483;28;20460;-73
2022/07/28 03:47:09;;;;;;;4.03;3.67;;;15.60;64.40;;;14.40;63.50;97941.34;5003964;28;20455;-75
2022/07/28 03:49:37;;;;;;;4.43;4.03;;;15.50;64.30;;;14.59;63.02;97950.97;5019491;28;20460;-74
2022/07/28 03:52:05;;;;;;;8.13;4.13;;;15.50;64.50;;;14.53;63.33;97951.13;5018054;28;20445;-74
2022/07/28 03:54:32;;;;;;;4.33;3.70;;;15.50;64.40;;;14.56;63.16;97954.19;5008186;28;20488;-74
2022/07/28 03:57:01;;;;;;;5.23;3.70;;;15.50;64.50;;;14.60;63.25;97946.34;4996752;28;20454;-75
2022/07/28 03:59:28;;;;;;;5.93;3.33;;;15.60;64.60;;;14.47;63.34;97939.34;5002463;28;20466;-74
2022/07/28 04:01:56;;;;;;;4.80;3.63;;;15.50;64.50;;;14.54;63.18;97936.47;5002084;28;20461;-76
2022/07/28 04:04:23;;;;;;;3.93;3.60;;;15.60;64.50;;;14.55;63.14;97943.56;5005780;28;20871;-74
2022/07/28 04:06:51;;;;;;;4.63;3.80;;;15.50;64.50;;;14.50;63.58;97935.31;4997430;28;20501;-74
2022/07/28 04:09:18;;;;;;;6.53;4.80;;;15.50;64.60;;;14.32;63.52;97928.97;5006245;28;20458;-75
2022/07/28 04:11:46;;;;;;;4.10;3.63;;;15.50;64.70;;;14.38;63.52;97938.91;5000830;28;20454;-74
2022/07/28 04:14:16;;;;;;;3.63;3.33;;;15.40;64.60;;;14.28;64.11;97944.13;5000842;28;21981;-73
2022/07/28 04:16:45;;;;;;;4.17;3.87;;;15.30;64.90;;;14.36;63.59;97951.06;5002595;28;20464;-75
2022/07/28 04:19:13;;;;;;;4.90;4.03;;;15.30;65.10;;;14.35;63.73;97950.25;5004029;28;20464;-74
2022/07/28 04:21:41;;;;;;;4.07;3.63;;;15.40;65.00;;;14.26;63.46;97924.53;4999986;28;20465;-74
2022/07/28 04:24:10;;;;;;;3.57;3.27;;;15.40;65.00;;;14.42;63.57;97945.50;4991104;28;20459;-75
2022/07/28 04:26:37;;;;;;;5.80;4.00;;;15.40;64.90;;;14.54;63.17;97939.19;5020344;28;20472;-75
2022/07/28 04:29:05;;;;;;;3.90;3.60;;;15.50;64.60;;;14.64;62.65;97939.38;5007134;28;20549;-75
2022/07/28 04:31:33;;;;;;;3.60;3.40;;;15.60;64.40;;;15.06;61.73;97953.72;5020698;28;20457;-74
2022/07/28 04:34:01;;;;;;;5.83;3.90;;;15.90;64.00;;;15.68;59.45;97950.06;5004588;28;20470;-75
2022/07/28 04:36:28;;;;;;;4.10;3.80;;;16.50;62.90;;;15.86;58.75;97957.13;4999175;28;20573;-74
2022/07/28 04:38:58;;;;;;;6.10;3.33;;;16.90;61.70;;;16.34;57.27;97947.66;4997042;28;20480;-79
2022/07/28 04:41:26;;;;;;;6.20;3.63;;;17.40;60.80;;;16.45;56.33;97903.06;5001537;28;20509;-82
2022/07/28 04:43:53;;;;;;;7.93;3.00;;;17.80;60.00;;;17.15;54.90;97948.75;5018727;28;20504;-81
2022/07/28 04:46:21;;;;;;;3.77;3.47;;;18.20;59.20;;;17.60;53.30;97943.91;4999779;28;20737;-81
2022/07/28 04:48:50;;;;;;;3.53;2.80;;;18.70;58.10;;;17.80;52.80;97954.13;5000247;28;20459;-82
2022/07/28 04:51:18;;;;;;;3.70;3.07;;;19.00;57.60;;;17.58;53.34;97950.72;5010127;28;20566;-72
2022/07/28 04:53:46;;;;;;;3.20;2.80;;;18.80;57.40;;;17.64;52.77;97952.38;5015231;28;20512;-71
2022/07/28 04:56:13;;;;;;;3.47;3.17;;;18.80;57.10;;;17.75;52.55;97962.28;5005931;28;20487;-81
2022/07/28 04:58:41;;;;;;;3.70;3.00;;;19.00;56.70;;;17.79;52.50;97952.47;5000385;28;20470;-77
2022/07/28 05:01:08;;;;;;;6.13;2.90;;;18.90;56.70;;;17.88;52.50;97946.53;4995278;28;20472;-73
2022/07/28 05:03:35;;;;;;;4.07;3.20;;;19.10;56.90;;;18.17;51.58;97957.09;5014692;28;20443;-73
2022/07/28 05:06:04;;;;;;;4.47;2.83;;;19.30;56.30;;;17.21;53.72;97950.47;4998244;28;20525;-73
2022/07/28 05:08:32;;;;;;;5.80;2.80;;;18.70;56.40;;;16.92;54.82;97941.69;4996187;28;20536;-72
2022/07/28 05:10:59;;;;;;;4.17;3.33;;;18.20;57.10;;;16.54;55.97;97955.22;4996198;28;20482;-75
2022/07/28 05:13:26;;;;;;;3.47;3.17;;;17.80;57.50;;;16.33;56.87;97949.56;4997700;28;21036;-74
2022/07/28 05:15:53;;;;;;;4.07;3.00;;;17.50;58.10;;;16.41;56.16;97951.81;4997881;28;20481;-72
2022/07/28 05:18:20;;;;;;;4.53;3.10;;;17.50;58.10;;;16.79;55.32;97951.13;4990857;28;20994;-72
2022/07/28 05:20:47;;;;;;;5.80;3.10;;;17.80;58.20;;;17.72;52.89;97943.72;4994939;28;20467;-74
2022/07/28 05:23:17;;;;;;;5.10;3.17;;;18.60;57.40;;;17.80;52.17;97948.66;4991487;28;20467;-73
2022/07/28 05:25:44;;;;;;;3.90;2.90;;;19.10;56.20;;;18.61;50.48;97937.53;4989866;28;21144;-72
2022/07/28 05:28:12;;;;;;;3.37;2.90;;;19.70;55.80;;;18.49;50.34;97945.97;4994976;28;20477;-72
2022/07/28 05:30:39;;;;;;;3.00;2.80;;;19.80;55.10;;;18.85;49.69;97942.50;5001423;28;20501;-71
2022/07/28 05:33:06;;;;;;;4.47;3.07;;;20.10;54.90;;;18.89;50.01;97951.81;5007714;28;20464;-72
2022/07/28 05:35:33;;;;;;;3.90;2.90;;;20.10;54.90;;;18.75;49.78;97945.22;4994031;28;20476;-74
2022/07/28 05:38:00;;;;;;;5.13;3.00;;;20.20;54.30;;;18.71;49.28;97949.59;5012412;28;20461;-72
2022/07/28 05:40:30;;;;;;;6.23;2.93;;;20.20;54.00;;;18.80;49.40;97956.19;5012586;28;21225;-72
2022/07/28 05:42:57;;;;;;;3.60;3.10;;;20.10;54.30;;;18.33;50.47;97958.78;5012529;28;21315;-73
2022/07/28 05:45:24;;;;;;;3.70;3.10;;;19.80;54.30;;;17.67;52.50;97957.34;5003844;28;20954;-75
2022/07/28 05:47:53;;;;;;;6.23;3.43;;;19.10;55.00;;;18.13;51.37;97951.31;4998864;28;20480;-74
2022/07/28 05:50:23;;;;;;;3.37;3.00;;;19.20;55.30;;;18.14;51.16;97957.63;4995753;28;20454;-74
2022/07/28 05:52:51;;;;;;;8.20;4.03;;;19.30;55.00;;;18.14;50.99;97957.63;4997585;28;20467;-77
2022/07/28 05:55:18;;;;;;;4.07;3.40;;;19.40;54.90;;;17.80;52.32;97958.78;5013716;28;21002;-77
2022/07/28 05:57:48;;;;;;;8.40;3.60;;;19.00;55.20;;;17.69;52.67;97957.91;5004158;28;20459;-78
2022/07/28 06:00:18;;;;;;;5.97;3.47;;;18.80;55.70;;;17.68;52.82;97956.25;5012819;28;20451;-75
2022/07/28 06:02:47;;;;;;;3.80;3.03;;;18.70;55.80;;;18.51;50.80;97959.38;5001195;28;20938;-72
2022/07/28 06:05:16;;;;;;;3.57;2.77;;;19.30;55.50;;;18.98;49.14;97955.66;5011667;28;20458;-73
2022/07/28 06:07:44;;;;;;;4.23;3.27;;;20.10;54.50;;;19.30;48.75;97952.94;4997156;28;20570;-74
2022/07/28 06:10:14;;;;;;;6.10;3.70;;;20.40;54.20;;;19.51;47.86;97951.84;5000458;28;20514;-73
2022/07/28 06:12:42;;;;;;;5.40;3.50;;;20.60;53.80;;;18.37;50.51;97950.88;4996469;28;20467;-72
2022/07/28 06:15:15;;;;;;;5.43;3.43;;;19.90;53.90;;;17.72;52.05;97960.09;5000163;28;20489;-70
2022/07/28 06:17:42;;;;;;;4.70;4.07;;;19.10;54.60;;;17.13;53.72;97950.94;5000155;28;20466;-71
2022/07/28 06:20:12;;;;;;;7.33;4.10;;;18.40;55.40;;;17.18;53.42;97948.22;5018449;28;20485;-71
2022/07/28 06:22:43;;;;;;;6.10;4.37;;;18.30;56.00;;;16.95;54.55;97961.13;5005686;28;20461;-70
2022/07/28 06:25:15;;;;;;;5.20;4.17;;;18.00;56.20;;;16.97;54.54;97961.69;4997888;28;20465;-72
2022/07/28 06:27:42;;;;;;;5.10;4.00;;;18.00;56.60;;;16.97;54.51;97974.47;4998754;28;20462;-71
2022/07/28 06:30:11;;;;;;;5.70;4.20;;;18.00;56.70;;;17.02;54.75;97965.56;5002409;28;20527;-71
2022/07/28 06:32:39;;;;;;;4.60;4.20;;;18.00;56.70;;;17.06;54.36;97972.97;4997727;28;20473;-72
2022/07/28 06:35:08;;;;;;;6.53;4.37;;;18.00;56.60;;;17.33;53.97;97969.38;5001076;28;20994;-72
2022/07/28 06:37:35;;;;;;;9.60;4.40;;;18.20;56.70;;;17.62;53.43;97981.88;4998619;28;20467;-72
2022/07/28 06:40:02;;;;;;;13.40;5.17;;;18.40;56.60;;;17.39;53.66;97976.53;5002650;28;20467;-71
2022/07/28 06:42:30;;;;;;;6.10;4.00;;;18.40;56.40;;;17.64;53.35;97976.97;4996643;28;20466;-72
2022/07/28 06:44:57;;;;;;;7.53;4.60;;;18.50;56.40;;;17.81;52.93;97982.28;5000534;28;20725;-72
2022/07/28 06:47:25;;;;;;;7.00;4.33;;;18.70;56.40;;;17.90;52.62;97967.03;5002668;28;20467;-71
2022/07/28 06:49:53;;;;;;;6.43;4.50;;;18.80;56.10;;;17.95;52.78;97977.16;4997650;28;20475;-72
2022/07/28 06:52:21;;;;;;;8.13;4.43;;;18.90;56.10;;;17.93;52.33;97924.69;4996771;28;20455;-72
2022/07/28 06:54:50;;;;;;;6.40;4.23;;;19.10;56.20;;;18.14;51.85;97968.56;4998634;28;21127;-72
2022/07/28 06:57:18;;;;;;;5.27;4.33;;;19.20;55.70;;;18.15;51.44;97923.72;5017419;28;20458;-72
2022/07/28 06:59:46;;;;;;;6.20;4.67;;;19.30;55.70;;;18.67;50.46;97969.28;5013173;28;20807;-71
2022/07/28 07:02:14;;;;;;;8.27;5.00;;;19.60;55.40;;;19.13;49.94;97967.75;5013526;28;20551;-73
2022/07/28 07:04:41;;;;;;;6.97;4.90;;;19.90;55.20;;;19.53;48.12;97971.59;5004236;28;20487;-71
2022/07/28 07:07:10;;;;;;;9.10;4.93;;;20.30;54.40;;;19.95;47.01;97971.53;5000298;28;20463;-71
2022/07/28 07:09:38;;;;;;;6.83;4.83;;;20.70;53.80;;;20.01;46.96;97973.16;5004404;28;20486;-72
2022/07/28 07:12:06;;;;;;;13.10;5.33;;;20.90;53.40;;;20.08;46.82;97970.94;5001937;28;20459;-71
2022/07/28 07:14:34;;;;;;;5.60;4.30;;;21.00;53.30;;;20.22;46.00;97971.19;5005269;28;20954;-71
2022/07/28 07:17:01;;;;;;;5.33;4.83;;;21.10;52.90;;;20.20;46.41;97962.41;5002429;28;20566;-73
2022/07/28 07:19:28;;;;;;;6.30;4.97;;;21.10;53.00;;;20.28;46.29;97973.88;5001154;28;20469;-73
2022/07/28 07:21:56;;;;;;;7.90;4.77;;;21.10;52.90;;;20.16;46.94;97971.47;4993236;28;20459;-73
2022/07/28 07:24:24;;;;;;;5.73;5.10;;;21.10;53.10;;;20.25;46.14;97969.81;4998609;28;20456;-72
2022/07/28 07:26:51;;;;;;;6.00;5.40;;;21.10;52.90;;;19.99;46.41;97971.78;5013553;28;20554;-72
2022/07/28 07:29:21;;;;;;;6.33;4.93;;;21.00;52.60;;;20.02;46.32;97974.00;4996032;28;20481;-73
2022/07/28 07:31:49;;;;;;;7.97;5.53;;;21.00;52.60;;;19.90;46.98;97968.78;4998065;28;20486;-72
2022/07/28 07:34:17;;;;;;;7.43;4.90;;;20.90;52.70;;;20.18;46.21;97964.63;4998988;28;20459;-73
2022/07/28 07:36:44;;;;;;;6.83;5.00;;;21.00;52.70;;;20.40;46.05;97957.94;4998138;28;20482;-72
2022/07/28 07:39:12;;;;;;;6.20;4.80;;;21.30;52.70;;;20.50;45.89;97965.28;5000465;28;22228;-74
2022/07/28 07:41:41;;;;;;;5.63;4.10;;;21.30;52.60;;;20.41;45.35;97967.00;5015254;28;20452;-73
2022/07/28 07:44:09;;;;;;;9.50;5.43;;;21.40;52.20;;;20.33;45.67;97958.22;4998700;28;20470;-72
2022/07/28 07:46:37;;;;;;;6.40;4.50;;;21.20;52.20;;;20.00;46.20;97956.97;4997568;28;20544;-72
2022/07/28 07:49:04;;;;;;;7.63;4.23;;;21.00;52.10;;;20.01;46.29;97951.22;5001913;28;20516;-72
2022/07/28 07:51:32;;;;;;;8.00;4.37;;;20.90;52.40;;;20.05;46.55;97949.56;4980249;28;20852;-72
2022/07/28 07:53:59;;;;;;;7.47;4.70;;;20.90;52.50;;;20.14;46.08;97951.75;4997811;28;20466;-72
2022/07/28 07:56:26;;;;;;;5.10;4.60;;;21.00;52.50;;;20.26;46.59;97941.28;4996866;28;20491;-72
2022/07/28 07:58:55;;;;;;;11.23;4.80;;;21.00;52.70;;;20.69;44.86;97948.16;5014854;28;20871;-73
2022/07/28 08:01:22;;;;;;;6.60;5.27;;;21.40;52.30;;;20.35;45.48;97942.31;4997579;28;20499;-73
2022/07/28 08:03:50;;;;;;;6.53;4.33;;;21.30;51.90;;;20.06;46.15;97936.69;5000387;28;20490;-73
2022/07/28 08:06:17;;;;;;;5.70;4.57;;;21.10;52.00;;;20.23;45.81;97939.06;5012433;28;20467;-74
2022/07/28 08:08:44;;;;;;;5.80;4.83;;;21.00;52.20;;;20.15;45.87;97945.97;4995675;28;20463;-74
2022/07/28 08:11:12;;;;;;;6.07;3.80;;;21.00;52.00;;;20.09;45.92;97938.88;4998852;28;20465;-74
2022/07/28 08:13:39;;;;;;;7.30;4.30;;;21.00;52.00;;;20.07;46.01;97936.38;5014410;28;20470;-74
2022/07/28 08:16:10;;;;;;;6.40;4.23;;;20.90;52.20;;;20.17;45.97;97941.03;4993100;28;20467;-73
2022/07/28 08:18:37;;;;;;;8.17;4.60;;;21.00;52.10;;;20.45;45.69;97930.47;4993312;28;20459;-73
2022/07/28 08:21:04;;;;;;;6.77;3.90;;;21.20;52.20;;;20.70;45.25;97933.34;4997062;28;20467;-74
2022/07/28 08:23:32;;;;;;;6.50;4.37;;;21.40;52.20;;;20.71;44.65;97924.84;4997247;28;20985;-74
2022/07/28 08:25:59;;;;;;;3.73;3.43;;;21.50;51.60;;;20.83;44.70;97942.91;4988542;28;20588;-73
2022/07/28 08:28:26;;;;;;;5.73;4.17;;;21.60;51.80;;;21.10;44.28;97942.44;4998121;28;20839;-74
2022/07/28 08:30:54;;;;;;;8.80;4.80;;;21.80;51.70;;;21.29;43.23;97939.81;4996639;28;20464;-73
2022/07/28 08:33:23;;;;;;;4.63;4.10;;;22.00;51.30;;;21.54;43.41;97928.88;4998967;28;20466;-74
2022/07/28 08:35:51;;;;;;;5.30;3.63;;;22.20;51.40;;;21.87;42.47;97929.09;5007693;28;20479;-73
2022/07/28 08:38:18;;;;;;;6.40;5.70;;;22.40;51.10;;;22.14;42.06;97938.72;4999817;28;20463;-74
2022/07/28 08:40:49;;;;;;;5.30;3.90;;;22.70;51.00;;;21.98;41.84;97930.63;4995249;28;20562;-74
2022/07/28 08:43:31;;;;;;;4.40;3.43;;;22.80;50.80;;;21.65;41.62;97883.69;4999329;28;20962;-74
2022/07/28 08:46:00;;;;;;;6.00;4.10;;;22.80;50.30;;;21.74;42.25;97925.94;4999022;28;20568;-74
2022/07/28 08:48:32;;;;;;;8.50;4.40;;;22.60;50.40;;;21.68;42.28;97940.84;4999287;28;20542;-73
2022/07/28 08:51:03;;;;;;;4.57;3.33;;;22.50;50.50;;;21.87;42.50;97931.84;4992118;28;20477;-73
2022/07/28 08:53:31;;;;;;;6.47;3.70;;;22.60;50.70;;;22.08;42.16;97936.03;4996929;28;20955;-74
2022/07/28 08:56:04;;;;;;;4.70;3.73;;;22.80;50.70;;;22.17;42.33;97932.63;4995597;28;20947;-74
2022/07/28 08:58:33;;;;;;;8.70;4.40;;;22.80;50.80;;;22.20;41.56;97927.34;4994185;28;20463;-72
2022/07/28 09:01:01;;;;;;;4.27;3.50;;;22.90;50.30;;;22.41;41.35;97929.81;4995678;28;20475;-73
2022/07/28 09:03:29;;;;;;;3.83;3.50;;;23.10;50.20;;;22.59;41.06;97933.75;4994708;28;20472;-73
2022/07/28 09:05:57;;;;;;;6.43;3.77;;;23.20;50.10;;;22.59;40.96;97927.41;4998460;28;20469;-74
2022/07/28 09:08:25;;;;;;;4.50;3.83;;;23.30;50.00;;;22.63;40.82;97923.78;5019997;28;20461;-73
2022/07/28 09:10:53;;;;;;;4.40;3.93;;;23.40;49.90;;;22.68;40.46;97924.84;5016634;28;20462;-72
2022/07/28 09:13:21;;;;;;;5.50;4.13;;;23.40;49.60;;;22.46;41.06;97923.44;5007359;28;20939;-74
2022/07/28 09:15:48;;;;;;;5.47;4.50;;;23.20;49.80;;;22.72;41.06;97921.16;5000082;28;20460;-73
2022/07/28 09:18:17;;;;;;;4.57;4.10;;;23.40;50.10;;;22.71;40.37;97918.72;5001753;28;20470;-74
2022/07/28 09:20:46;;;;;;;6.10;4.37;;;23.50;49.60;;;22.70;40.69;97928.09;4996490;28;20710;-74
2022/07/28 09:23:13;;;;;;;5.33;3.87;;;23.40;49.60;;;22.87;41.02;97917.38;5015501;28;20458;-74
2022/07/28 09:25:41;;;;;;;5.70;4.20;;;23.60;50.20;;;23.12;40.81;97911.75;4997515;28;20461;-73
2022/07/28 09:28:10;;;;;;;4.43;4.03;;;23.70;50.20;;;23.18;40.02;97911.38;4996259;28;20471;-71
2022/07/28 09:30:40;;;;;;;7.30;4.23;;;23.80;49.70;;;23.19;40.29;97912.19;5000031;28;20482;-73
2022/07/28 09:33:21;;;;;;;4.27;3.87;;;23.90;49.80;;;23.00;40.14;97909.47;5017238;28;20488;-73
2022/07/28 09:35:53;;;;;;;5.53;5.00;;;23.80;49.30;;;22.68;40.92;97916.56;5002751;28;20464;-73
2022/07/28 09:38:22;;;;;;;4.90;4.33;;;23.60;49.70;;;22.82;40.88;97909.19;5007960;28;20457;-73
2022/07/28 09:41:00;;;;;;;6.13;4.37;;;23.50;49.80;;;23.17;39.58;97909.75;4998554;28;20455;-74
2022/07/28 09:43:36;;;;;;;4.50;4.10;;;23.70;49.30;;;23.49;39.38;97908.13;4998693;28;20543;-74
2022/07/28 09:46:06;;;;;;;5.93;4.00;;;24.00;49.30;;;23.84;38.52;97907.75;4998382;28;20454;-74
2022/07/28 09:48:35;;;;;;;7.27;4.50;;;24.30;49.10;;;23.58;38.74;97910.97;4999919;28;20467;-74
2022/07/28 09:51:13;;;;;;;4.77;4.37;;;24.40;48.70;;;23.37;38.75;97898.69;5001451;28;20476;-74
2022/07/28 09:53:42;;;;;;;6.60;3.70;;;24.20;48.50;;;23.32;39.21;97908.69;5002708;28;20522;-75
2022/07/28 09:56:10;;;;;;;5.73;3.63;;;24.10;48.80;;;23.58;38.37;97912.91;4999006;28;20481;-74
2022/07/28 09:58:39;;;;;;;4.63;4.13;;;24.30;48.70;;;23.81;37.65;97894.56;4999298;28;20472;-75
2022/07/28 10:01:10;;;;;;;7.30;3.80;;;24.40;48.00;;;23.97;37.25;97884.03;4997304;28;20481;-75
2022/07/28 10:03:40;;;;;;;9.47;4.20;;;24.60;47.90;;;23.94;37.18;97895.69;4999641;28;20451;-75
2022/07/28 10:06:10;;;;;;;3.90;3.53;;;24.70;47.80;;;24.00;37.00;97891.69;5003556;28;20496;-74
2022/07/28 10:08:45;;;;;;;5.00;3.90;;;24.70;47.50;;;24.19;36.49;97872.28;5003571;28;20466;-75
2022/07/28 10:11:14;;;;;;;4.70;3.80;;;24.90;47.70;;;24.28;36.30;97902.75;5002307;28;20458;-75
2022/07/28 10:13:54;;;;;;;5.93;3.40;;;25.00;47.30;;;24.32;36.02;97886.38;5008401;28;20472;-75
2022/07/28 10:16:22;;;;;;;3.90;3.57;;;25.00;47.20;;;24.22;35.97;97892.94;5018411;28;20876;-74
2022/07/28 10:18:50;;;;;;;4.80;4.00;;;24.90;46.90;;;24.02;36.22;97877.59;5018728;28;20461;-75
2022/07/28 10:21:19;;;;;;;5.40;3.23;;;24.80;46.70;;;23.81;36.40;97878.03;5000695;28;20628;-76
2022/07/28 10:23:52;;;;;;;7.60;3.77;;;24.60;46.60;;;24.03;36.32;97873.75;5004217;28;20462;-74
2022/07/28 10:26:26;;;;;;;4.50;3.70;;;24.60;46.80;;;24.35;35.11;97863.69;5000196;28;20479;-75
2022/07/28 10:28:54;;;;;;;6.07;3.53;;;24.90;46.50;;;24.26;35.81;97877.41;5002788;28;20680;-76
2022/07/28 10:31:34;;;;;;;5.53;3.67;;;25.00;46.80;;;24.43;35.33;97876.75;5003108;28;20455;-74
2022/07/28 10:34:04;;;;;;;5.33;3.10;;;25.10;46.30;;;24.53;35.57;97861.91;5006279;28;20505;-76